LKE2187 ZULS-VNKT
Flight info
| Callsign | LKE2187 |
|---|---|
| Flight time | 1h 8m |
| Altitude | 34000 |
| Route | IKUBI B345 NONIM B345 KIMTI |
| Aircraft | B737/M-SDE2E3FGHIRWXY/LB1 |
Departure
| Time | 2026-04-17 01:22 |
|---|---|
| Airport | Lhasa Gonggar International Airport (ZULS) |
Arrival
| Time | 2026-04-17 02:30 |
|---|---|
| Airport | Tribhuvan International Airport (VNKT) |
| Time | Latitude | Longitude | Altitude | Speed | Heading |
|---|---|---|---|---|---|
| 2026-04-17 01:12 | 29.29250 | 90.89330 | 11627 ft | 0 kts | 113° |
| 2026-04-17 01:13 | 29.29257 | 90.89309 | 11619 ft | 4 kts | 111° |
| 2026-04-17 01:13 | 29.29267 | 90.89280 | 11610 ft | 4 kts | 113° |
| 2026-04-17 01:13 | 29.29278 | 90.89252 | 11610 ft | 4 kts | 114° |
| 2026-04-17 01:14 | 29.29289 | 90.89224 | 11615 ft | 4 kts | 114° |
| 2026-04-17 01:14 | 29.29301 | 90.89197 | 11620 ft | 4 kts | 120° |
| 2026-04-17 01:14 | 29.29314 | 90.89170 | 11622 ft | 4 kts | 101° |
| 2026-04-17 01:14 | 29.29314 | 90.89154 | 11626 ft | 0 kts | 62° |
| 2026-04-17 01:17 | 29.29314 | 90.89155 | 11626 ft | 0 kts | 62° |
| 2026-04-17 01:18 | 29.29326 | 90.89170 | 11617 ft | 5 kts | 43° |
| 2026-04-17 01:18 | 29.29358 | 90.89194 | 11625 ft | 6 kts | 17° |
| 2026-04-17 01:18 | 29.29407 | 90.89196 | 11620 ft | 7 kts | 358° |
| 2026-04-17 01:18 | 29.29464 | 90.89195 | 11618 ft | 9 kts | 360° |
| 2026-04-17 01:19 | 29.29529 | 90.89196 | 11620 ft | 10 kts | 360° |
| 2026-04-17 01:19 | 29.29597 | 90.89195 | 11619 ft | 10 kts | 359° |
| 2026-04-17 01:19 | 29.29630 | 90.89195 | 11621 ft | 0 kts | 0° |
| 2026-04-17 01:20 | 29.29632 | 90.89195 | 11622 ft | 2 kts | 360° |
| 2026-04-17 01:20 | 29.29658 | 90.89194 | 11618 ft | 5 kts | 358° |
| 2026-04-17 01:21 | 29.29707 | 90.89192 | 11624 ft | 9 kts | 358° |
| 2026-04-17 01:21 | 29.29771 | 90.89219 | 11623 ft | 12 kts | 56° |
| 2026-04-17 01:21 | 29.29779 | 90.89332 | 11617 ft | 25 kts | 88° |
| 2026-04-17 01:21 | 29.29786 | 90.89786 | 11625 ft | 89 kts | 89° |
| 2026-04-17 01:22 | 29.29800 | 90.90739 | 11621 ft | 146 kts | 89° |
| 2026-04-17 01:22 | 29.29807 | 90.92048 | 11631 ft | 191 kts | 90° |
| 2026-04-17 01:22 | 29.29797 | 90.93620 | 12127 ft | 196 kts | 88° |
| 2026-04-17 01:22 | 29.29824 | 90.95177 | 13019 ft | 195 kts | 86° |
| 2026-04-17 01:23 | 29.29894 | 90.96776 | 13477 ft | 208 kts | 88° |
| 2026-04-17 01:23 | 29.29935 | 90.98538 | 13648 ft | 233 kts | 89° |
| 2026-04-17 01:23 | 29.30042 | 91.00486 | 13827 ft | 258 kts | 80° |
| 2026-04-17 01:23 | 29.30546 | 91.02546 | 14200 ft | 277 kts | 67° |
| 2026-04-17 01:24 | 29.31388 | 91.04550 | 14934 ft | 281 kts | 64° |
| 2026-04-17 01:24 | 29.31975 | 91.06694 | 15686 ft | 285 kts | 84° |
| 2026-04-17 01:24 | 29.31929 | 91.08973 | 16440 ft | 289 kts | 100° |
| 2026-04-17 01:24 | 29.31399 | 91.11212 | 17188 ft | 294 kts | 107° |
| 2026-04-17 01:25 | 29.30854 | 91.13497 | 17927 ft | 300 kts | 103° |
| 2026-04-17 01:25 | 29.30443 | 91.15861 | 18649 ft | 305 kts | 98° |
| 2026-04-17 01:25 | 29.30181 | 91.18293 | 19269 ft | 311 kts | 94° |
| 2026-04-17 01:25 | 29.30008 | 91.20790 | 19889 ft | 317 kts | 94° |
| 2026-04-17 01:26 | 29.29833 | 91.23336 | 20515 ft | 323 kts | 94° |
| 2026-04-17 01:26 | 29.29650 | 91.25919 | 21137 ft | 329 kts | 94° |
| 2026-04-17 01:26 | 29.29458 | 91.28556 | 21758 ft | 335 kts | 94° |
| 2026-04-17 01:26 | 29.29215 | 91.31231 | 22375 ft | 341 kts | 101° |
| 2026-04-17 01:27 | 29.28515 | 91.33848 | 22984 ft | 346 kts | 116° |
| 2026-04-17 01:27 | 29.27267 | 91.36212 | 23603 ft | 349 kts | 131° |
| 2026-04-17 01:27 | 29.25545 | 91.38166 | 24142 ft | 349 kts | 147° |
| 2026-04-17 01:27 | 29.23473 | 91.39583 | 24691 ft | 346 kts | 161° |
| 2026-04-17 01:28 | 29.21218 | 91.40524 | 25283 ft | 346 kts | 165° |
| 2026-04-17 01:28 | 29.18948 | 91.41474 | 25824 ft | 350 kts | 164° |
| 2026-04-17 01:28 | 29.16651 | 91.42471 | 26375 ft | 355 kts | 164° |
| 2026-04-17 01:28 | 29.14329 | 91.43475 | 26941 ft | 358 kts | 166° |
| 2026-04-17 01:29 | 29.11918 | 91.43979 | 27455 ft | 349 kts | 189° |
| 2026-04-17 01:29 | 29.07531 | 91.42279 | 28671 ft | 329 kts | 221° |
| 2026-04-17 01:29 | 29.05838 | 91.40571 | 29175 ft | 322 kts | 236° |
| 2026-04-17 01:30 | 29.04619 | 91.38460 | 29739 ft | 316 kts | 250° |
| 2026-04-17 01:30 | 29.03927 | 91.36101 | 30330 ft | 312 kts | 263° |
| 2026-04-17 01:30 | 29.03789 | 91.33646 | 30819 ft | 309 kts | 276° |
| 2026-04-17 01:30 | 29.03841 | 91.31162 | 31086 ft | 322 kts | 265° |
| 2026-04-17 01:31 | 29.03275 | 91.28620 | 31177 ft | 341 kts | 253° |
| 2026-04-17 01:31 | 29.02278 | 91.26092 | 31304 ft | 355 kts | 250° |
| 2026-04-17 01:31 | 29.01215 | 91.23486 | 31404 ft | 368 kts | 250° |
| 2026-04-17 01:31 | 29.00118 | 91.20788 | 31510 ft | 380 kts | 250° |
| 2026-04-17 01:32 | 28.98991 | 91.18007 | 31597 ft | 391 kts | 250° |
| 2026-04-17 01:32 | 28.96660 | 91.12226 | 31878 ft | 408 kts | 250° |
| 2026-04-17 01:32 | 28.95470 | 91.09268 | 32172 ft | 412 kts | 250° |
| 2026-04-17 01:33 | 28.94275 | 91.06294 | 32543 ft | 412 kts | 250° |
| 2026-04-17 01:33 | 28.93082 | 91.03327 | 33075 ft | 409 kts | 250° |
| 2026-04-17 01:33 | 28.91904 | 91.00398 | 33646 ft | 405 kts | 251° |
| 2026-04-17 01:33 | 28.91125 | 90.98462 | 33972 ft | 404 kts | 251° |
| 2026-04-17 01:34 | 28.89573 | 90.94594 | 34196 ft | 406 kts | 251° |
| 2026-04-17 01:34 | 28.87224 | 90.88748 | 34254 ft | 405 kts | 251° |
| 2026-04-17 01:35 | 28.85255 | 90.83853 | 34227 ft | 405 kts | 251° |
| 2026-04-17 01:35 | 28.82913 | 90.78037 | 34245 ft | 403 kts | 251° |
| 2026-04-17 01:36 | 28.80588 | 90.72274 | 34227 ft | 402 kts | 251° |
| 2026-04-17 01:36 | 28.78235 | 90.66451 | 34251 ft | 402 kts | 251° |
| 2026-04-17 01:37 | 28.75892 | 90.60661 | 34239 ft | 403 kts | 251° |
| 2026-04-17 01:37 | 28.73559 | 90.54904 | 34254 ft | 403 kts | 251° |
| 2026-04-17 01:38 | 28.71192 | 90.49078 | 34254 ft | 403 kts | 251° |
| 2026-04-17 01:38 | 28.68835 | 90.43273 | 34236 ft | 403 kts | 251° |
| 2026-04-17 01:39 | 28.66496 | 90.37525 | 34266 ft | 402 kts | 250° |
| 2026-04-17 01:39 | 28.64118 | 90.31700 | 34243 ft | 404 kts | 250° |
| 2026-04-17 01:40 | 28.61750 | 90.25900 | 34246 ft | 405 kts | 250° |
| 2026-04-17 01:40 | 28.59369 | 90.20080 | 34259 ft | 406 kts | 250° |
| 2026-04-17 01:41 | 28.56996 | 90.14286 | 34255 ft | 407 kts | 250° |
| 2026-04-17 01:41 | 28.54598 | 90.08440 | 34249 ft | 409 kts | 250° |
| 2026-04-17 01:42 | 28.52185 | 90.02567 | 34242 ft | 411 kts | 250° |
| 2026-04-17 01:42 | 28.49764 | 89.96681 | 34268 ft | 410 kts | 250° |
| 2026-04-17 01:43 | 28.47342 | 89.90808 | 34253 ft | 410 kts | 250° |
| 2026-04-17 01:43 | 28.44925 | 89.84955 | 34249 ft | 408 kts | 250° |
| 2026-04-17 01:44 | 28.42525 | 89.79149 | 34258 ft | 405 kts | 250° |
| 2026-04-17 01:44 | 28.40133 | 89.73367 | 34253 ft | 404 kts | 250° |
| 2026-04-17 01:45 | 28.37747 | 89.67613 | 34269 ft | 402 kts | 249° |
| 2026-04-17 01:45 | 28.35360 | 89.61863 | 34259 ft | 402 kts | 249° |
| 2026-04-17 01:46 | 28.32973 | 89.56118 | 34263 ft | 403 kts | 250° |
| 2026-04-17 01:46 | 28.30577 | 89.50360 | 34260 ft | 404 kts | 249° |
| 2026-04-17 01:47 | 28.28168 | 89.44581 | 34257 ft | 406 kts | 249° |
| 2026-04-17 01:47 | 28.25750 | 89.38792 | 34274 ft | 407 kts | 249° |
| 2026-04-17 01:48 | 28.23320 | 89.32982 | 34273 ft | 408 kts | 249° |
| 2026-04-17 01:48 | 28.20888 | 89.27173 | 34274 ft | 408 kts | 249° |
| 2026-04-17 01:49 | 28.18455 | 89.21373 | 34280 ft | 407 kts | 249° |
| 2026-04-17 01:49 | 28.16023 | 89.15583 | 34267 ft | 407 kts | 249° |
| 2026-04-17 01:50 | 28.13601 | 89.09835 | 34263 ft | 406 kts | 249° |
| 2026-04-17 01:50 | 28.11172 | 89.04062 | 34236 ft | 406 kts | 249° |
| 2026-04-17 01:51 | 28.08743 | 88.98303 | 34267 ft | 405 kts | 249° |
| 2026-04-17 01:51 | 28.06309 | 88.92547 | 34248 ft | 405 kts | 249° |
| 2026-04-17 01:52 | 28.03872 | 88.86796 | 34229 ft | 405 kts | 249° |
| 2026-04-17 01:52 | 28.01442 | 88.81045 | 34242 ft | 405 kts | 249° |
| 2026-04-17 01:53 | 27.99001 | 88.75288 | 34239 ft | 406 kts | 249° |
| 2026-04-17 01:53 | 27.96556 | 88.69530 | 34234 ft | 405 kts | 249° |
| 2026-04-17 01:54 | 27.94111 | 88.63785 | 34231 ft | 405 kts | 249° |
| 2026-04-17 01:54 | 27.91656 | 88.58022 | 34223 ft | 407 kts | 249° |
| 2026-04-17 01:55 | 27.89190 | 88.52244 | 34201 ft | 408 kts | 249° |
| 2026-04-17 01:55 | 27.86719 | 88.46467 | 34227 ft | 409 kts | 249° |
| 2026-04-17 01:56 | 27.84252 | 88.40696 | 34199 ft | 406 kts | 249° |
| 2026-04-17 01:56 | 27.81802 | 88.34989 | 34180 ft | 403 kts | 249° |
| 2026-04-17 01:57 | 27.79365 | 88.29302 | 34198 ft | 401 kts | 249° |
| 2026-04-17 01:57 | 27.76935 | 88.23648 | 34202 ft | 400 kts | 249° |
| 2026-04-17 01:58 | 27.74495 | 88.17984 | 34179 ft | 403 kts | 249° |
| 2026-04-17 01:58 | 27.72043 | 88.12273 | 34206 ft | 405 kts | 249° |
| 2026-04-17 01:59 | 27.69573 | 88.06550 | 34185 ft | 405 kts | 248° |
| 2026-04-17 01:59 | 27.67091 | 88.00806 | 34153 ft | 409 kts | 249° |
| 2026-04-17 02:00 | 27.64600 | 87.95057 | 34188 ft | 409 kts | 249° |
| 2026-04-17 02:00 | 27.62119 | 87.89323 | 34175 ft | 409 kts | 249° |
| 2026-04-17 02:01 | 27.59619 | 87.83538 | 34181 ft | 405 kts | 249° |
| 2026-04-17 02:01 | 27.57147 | 87.77869 | 34130 ft | 405 kts | 249° |
| 2026-04-17 02:02 | 27.54674 | 87.72194 | 34160 ft | 402 kts | 249° |
| 2026-04-17 02:02 | 27.52206 | 87.66547 | 34129 ft | 401 kts | 249° |
| 2026-04-17 02:03 | 27.49737 | 87.60884 | 34232 ft | 405 kts | 248° |
| 2026-04-17 02:03 | 27.47246 | 87.55153 | 34133 ft | 408 kts | 249° |
| 2026-04-17 02:04 | 27.44739 | 87.49440 | 34112 ft | 405 kts | 249° |
| 2026-04-17 02:04 | 27.42266 | 87.43802 | 34145 ft | 400 kts | 249° |
| 2026-04-17 02:05 | 27.39798 | 87.38165 | 34096 ft | 402 kts | 249° |
| 2026-04-17 02:05 | 27.37319 | 87.32512 | 34101 ft | 403 kts | 248° |
| 2026-04-17 02:06 | 27.34842 | 87.26876 | 34101 ft | 403 kts | 248° |
| 2026-04-17 02:06 | 27.32733 | 87.21103 | 34108 ft | 395 kts | 262° |
| 2026-04-17 02:07 | 27.32463 | 87.15005 | 34079 ft | 390 kts | 278° |
| 2026-04-17 02:07 | 27.33574 | 87.09053 | 34110 ft | 390 kts | 283° |
| 2026-04-17 02:08 | 27.34795 | 87.03102 | 34100 ft | 390 kts | 283° |
| 2026-04-17 02:08 | 27.35995 | 86.97141 | 34115 ft | 391 kts | 282° |
| 2026-04-17 02:09 | 27.37180 | 86.91187 | 34128 ft | 390 kts | 282° |
| 2026-04-17 02:09 | 27.38357 | 86.85200 | 34104 ft | 393 kts | 282° |
| 2026-04-17 02:09 | 27.38948 | 86.82185 | 33672 ft | 399 kts | 282° |
| 2026-04-17 02:10 | 27.39542 | 86.79146 | 33029 ft | 397 kts | 282° |
| 2026-04-17 02:10 | 27.40126 | 86.76158 | 32601 ft | 388 kts | 282° |
| 2026-04-17 02:10 | 27.40702 | 86.73203 | 32076 ft | 384 kts | 283° |
| 2026-04-17 02:10 | 27.41274 | 86.70277 | 31569 ft | 381 kts | 283° |
| 2026-04-17 02:11 | 27.41841 | 86.67375 | 31046 ft | 379 kts | 283° |
| 2026-04-17 02:11 | 27.42402 | 86.64494 | 30557 ft | 375 kts | 283° |
| 2026-04-17 02:11 | 27.42956 | 86.61644 | 30044 ft | 372 kts | 283° |
| 2026-04-17 02:11 | 27.43507 | 86.58817 | 29531 ft | 369 kts | 283° |
| 2026-04-17 02:12 | 27.44054 | 86.56006 | 28946 ft | 365 kts | 283° |
| 2026-04-17 02:12 | 27.44592 | 86.53234 | 28434 ft | 361 kts | 283° |
| 2026-04-17 02:12 | 27.45124 | 86.50486 | 27937 ft | 357 kts | 283° |
| 2026-04-17 02:12 | 27.45649 | 86.47770 | 27402 ft | 354 kts | 282° |
| 2026-04-17 02:13 | 27.46171 | 86.45075 | 26914 ft | 350 kts | 282° |
| 2026-04-17 02:13 | 27.46689 | 86.42401 | 26424 ft | 349 kts | 282° |
| 2026-04-17 02:13 | 27.47203 | 86.39740 | 25931 ft | 348 kts | 282° |
| 2026-04-17 02:13 | 27.47715 | 86.37089 | 25439 ft | 347 kts | 282° |
| 2026-04-17 02:14 | 27.48226 | 86.34440 | 24955 ft | 346 kts | 282° |
| 2026-04-17 02:14 | 27.48737 | 86.31786 | 24423 ft | 347 kts | 282° |
| 2026-04-17 02:14 | 27.49246 | 86.29136 | 23922 ft | 347 kts | 282° |
| 2026-04-17 02:14 | 27.49749 | 86.26485 | 23331 ft | 345 kts | 281° |
| 2026-04-17 02:15 | 27.50135 | 86.23850 | 22884 ft | 338 kts | 278° |
| 2026-04-17 02:15 | 27.50434 | 86.21233 | 22396 ft | 336 kts | 277° |
| 2026-04-17 02:15 | 27.50710 | 86.18657 | 21909 ft | 335 kts | 277° |
| 2026-04-17 02:15 | 27.50997 | 86.16019 | 21387 ft | 334 kts | 277° |
| 2026-04-17 02:16 | 27.51286 | 86.13435 | 20871 ft | 332 kts | 277° |
| 2026-04-17 02:16 | 27.51575 | 86.10903 | 20447 ft | 329 kts | 278° |
| 2026-04-17 02:16 | 27.51870 | 86.08348 | 19958 ft | 329 kts | 278° |
| 2026-04-17 02:16 | 27.52168 | 86.05800 | 19465 ft | 328 kts | 278° |
| 2026-04-17 02:17 | 27.52466 | 86.03249 | 18987 ft | 328 kts | 278° |
| 2026-04-17 02:17 | 27.52765 | 86.00704 | 18492 ft | 327 kts | 278° |
| 2026-04-17 02:17 | 27.53062 | 85.98169 | 17951 ft | 326 kts | 278° |
| 2026-04-17 02:17 | 27.53358 | 85.95645 | 17449 ft | 325 kts | 278° |
| 2026-04-17 02:18 | 27.53652 | 85.93132 | 16982 ft | 323 kts | 278° |
| 2026-04-17 02:18 | 27.53945 | 85.90625 | 16479 ft | 322 kts | 278° |
| 2026-04-17 02:18 | 27.54231 | 85.88165 | 16334 ft | 310 kts | 278° |
| 2026-04-17 02:18 | 27.54506 | 85.85798 | 16176 ft | 300 kts | 278° |
| 2026-04-17 02:19 | 27.54845 | 85.83513 | 15858 ft | 295 kts | 285° |
| 2026-04-17 02:19 | 27.55429 | 85.81312 | 15465 ft | 293 kts | 288° |
| 2026-04-17 02:19 | 27.56072 | 85.79143 | 15103 ft | 291 kts | 288° |
| 2026-04-17 02:19 | 27.56712 | 85.76989 | 14718 ft | 290 kts | 288° |
| 2026-04-17 02:20 | 27.57340 | 85.74832 | 14328 ft | 290 kts | 288° |
| 2026-04-17 02:20 | 27.57962 | 85.72655 | 13802 ft | 294 kts | 288° |
| 2026-04-17 02:20 | 27.58375 | 85.71197 | 13478 ft | 295 kts | 287° |
| 2026-04-17 02:20 | 27.58991 | 85.68999 | 13055 ft | 293 kts | 287° |
| 2026-04-17 02:21 | 27.59601 | 85.66814 | 12643 ft | 292 kts | 287° |
| 2026-04-17 02:21 | 27.60204 | 85.64640 | 12237 ft | 290 kts | 287° |
| 2026-04-17 02:21 | 27.60804 | 85.62473 | 11832 ft | 289 kts | 287° |
| 2026-04-17 02:21 | 27.61401 | 85.60325 | 11571 ft | 287 kts | 287° |
| 2026-04-17 02:22 | 27.61997 | 85.58171 | 11308 ft | 289 kts | 287° |
| 2026-04-17 02:22 | 27.62598 | 85.56007 | 11019 ft | 290 kts | 287° |
| 2026-04-17 02:22 | 27.63201 | 85.53826 | 10756 ft | 292 kts | 287° |
| 2026-04-17 02:22 | 27.63804 | 85.51644 | 10474 ft | 289 kts | 287° |
| 2026-04-17 02:23 | 27.64396 | 85.49501 | 10198 ft | 282 kts | 287° |
| 2026-04-17 02:23 | 27.64986 | 85.47442 | 9918 ft | 272 kts | 290° |
| 2026-04-17 02:23 | 27.65705 | 85.45518 | 9639 ft | 260 kts | 296° |
| 2026-04-17 02:23 | 27.66523 | 85.43768 | 9393 ft | 250 kts | 297° |
| 2026-04-17 02:24 | 27.67326 | 85.42075 | 9154 ft | 240 kts | 297° |
| 2026-04-17 02:24 | 27.68096 | 85.40445 | 8947 ft | 231 kts | 297° |
| 2026-04-17 02:24 | 27.68836 | 85.38877 | 8761 ft | 222 kts | 297° |
| 2026-04-17 02:24 | 27.69541 | 85.37378 | 8561 ft | 212 kts | 297° |
| 2026-04-17 02:25 | 27.70216 | 85.35941 | 8348 ft | 203 kts | 297° |
| 2026-04-17 02:25 | 27.70862 | 85.34565 | 8140 ft | 194 kts | 297° |
| 2026-04-17 02:25 | 27.71479 | 85.33247 | 7938 ft | 185 kts | 297° |
| 2026-04-17 02:25 | 27.72061 | 85.31916 | 7338 ft | 200 kts | 289° |
| 2026-04-17 02:26 | 27.72342 | 85.30327 | 6676 ft | 214 kts | 270° |
| 2026-04-17 02:26 | 27.72139 | 85.28628 | 5937 ft | 221 kts | 253° |
| 2026-04-17 02:26 | 27.71364 | 85.27212 | 5526 ft | 202 kts | 223° |
| 2026-04-17 02:26 | 27.70281 | 85.26435 | 5487 ft | 168 kts | 201° |
| 2026-04-17 02:27 | 27.69241 | 85.26368 | 5467 ft | 152 kts | 160° |
| 2026-04-17 02:27 | 27.68280 | 85.26822 | 5409 ft | 147 kts | 158° |
| 2026-04-17 02:27 | 27.67347 | 85.27304 | 5513 ft | 149 kts | 153° |
| 2026-04-17 02:27 | 27.66403 | 85.27837 | 5646 ft | 151 kts | 156° |
| 2026-04-17 02:28 | 27.65461 | 85.28283 | 5846 ft | 150 kts | 156° |
| 2026-04-17 02:28 | 27.64571 | 85.28940 | 5999 ft | 154 kts | 132° |
| 2026-04-17 02:28 | 27.64098 | 85.30000 | 5942 ft | 156 kts | 100° |
| 2026-04-17 02:28 | 27.64120 | 85.31221 | 5698 ft | 159 kts | 77° |
| 2026-04-17 02:29 | 27.64516 | 85.32368 | 5297 ft | 156 kts | 58° |
| 2026-04-17 02:29 | 27.65189 | 85.33315 | 4873 ft | 156 kts | 43° |
| 2026-04-17 02:29 | 27.66006 | 85.34052 | 4708 ft | 146 kts | 30° |
| 2026-04-17 02:29 | 27.66870 | 85.34592 | 4544 ft | 137 kts | 25° |
| 2026-04-17 02:30 | 27.67713 | 85.35021 | 4408 ft | 134 kts | 20° |
| 2026-04-17 02:30 | 27.68568 | 85.35411 | 4394 ft | 124 kts | 22° |
| 2026-04-17 02:30 | 27.69228 | 85.35716 | 4393 ft | 81 kts | 23° |
| 2026-04-17 02:30 | 27.69600 | 85.35891 | 4395 ft | 27 kts | 18° |
| 2026-04-17 02:31 | 27.69732 | 85.35946 | 4394 ft | 20 kts | 24° |
| 2026-04-17 02:31 | 27.69848 | 85.35998 | 4395 ft | 11 kts | 9° |
| 2026-04-17 02:31 | 27.69908 | 85.35959 | 4396 ft | 10 kts | 290° |
| 2026-04-17 02:31 | 27.69912 | 85.35943 | 4396 ft | 0 kts | 284° |
| 2026-04-17 02:32 | 27.69913 | 85.35936 | 4396 ft | 3 kts | 283° |
| 2026-04-17 02:32 | 27.69910 | 85.35896 | 4396 ft | 7 kts | 255° |
| 2026-04-17 02:33 | 27.69924 | 85.35850 | 4397 ft | 8 kts | 289° |
| 2026-04-17 02:33 | 27.69937 | 85.35814 | 4397 ft | 0 kts | 291° |